createdAt,value
2017-05-02T00:00:00.423Z,99.99
2017-05-02T00:01:00.713Z,99.99
2017-05-02T00:02:00.691Z,99.99
2017-05-02T00:03:00.373Z,99.99
2017-05-02T00:04:00.650Z,99.99
2017-05-02T00:05:00.633Z,99.99
2017-05-02T00:06:00.316Z,99.99
2017-05-02T00:07:00.593Z,99.99
2017-05-02T00:08:00.591Z,99.99
2017-05-02T00:09:00.550Z,99.99
2017-05-02T00:10:00.544Z,99.99
2017-05-02T00:11:00.207Z,99.99
2017-05-02T00:12:00.186Z,99.99
2017-05-02T00:13:00.472Z,99.99
2017-05-02T00:14:00.155Z,99.99
2017-05-02T00:15:00.443Z,99.99
2017-05-02T00:16:00.423Z,99.99
2017-05-02T00:17:00.400Z,99.99
2017-05-02T00:18:00.076Z,99.99
2017-05-02T00:19:00.370Z,99.99
2017-05-02T00:20:00.344Z,99.99
2017-05-02T00:21:00.324Z,99.99
2017-05-02T00:22:00.303Z,99.99
2017-05-02T00:23:00.301Z,99.99
2017-05-02T00:24:00.264Z,99.99
2017-05-02T00:25:00.259Z,99.99
2017-05-02T00:26:00.223Z,99.99
2017-05-02T00:27:00.204Z,99.99
2017-05-02T00:28:00.193Z,99.99
2017-05-02T00:29:00.167Z,99.99
2017-05-02T00:30:00.149Z,99.99
2017-05-02T00:31:00.135Z,99.99
2017-05-02T00:32:00.114Z,99.99
2017-05-02T00:33:00.095Z,99.99
2017-05-02T00:34:00.069Z,99.99
2017-05-02T00:35:00.055Z,99.99
2017-05-02T00:36:00.033Z,99.99
2017-05-02T00:36:59.710Z,99.99
2017-05-02T00:37:59.690Z,99.99
2017-05-02T00:38:59.672Z,99.99
2017-05-02T00:39:59.952Z,99.99
2017-05-02T00:40:59.932Z,99.99
2017-05-02T00:41:59.922Z,99.99
2017-05-02T00:42:59.602Z,99.99
2017-05-02T00:43:59.576Z,99.99
2017-05-02T00:44:59.863Z,99.99
2017-05-02T00:45:59.542Z,99.99
2017-05-02T00:46:59.822Z,99.99
2017-05-02T00:47:59.493Z,99.99
2017-05-02T00:48:59.469Z,99.99
2017-05-02T00:49:59.759Z,99.99
2017-05-02T00:50:59.432Z,99.99
2017-05-02T00:51:59.722Z,99.99
2017-05-02T00:52:59.704Z,99.99
2017-05-02T00:53:59.692Z,99.99
2017-05-02T00:54:59.664Z,99.99
2017-05-02T00:55:59.644Z,99.99
2017-05-02T00:56:59.623Z,99.99
2017-05-02T00:57:59.313Z,99.99
2017-05-02T00:58:59.594Z,99.99
2017-05-02T00:59:59.572Z,99.99
2017-05-02T01:00:59.548Z,99.99
2017-05-02T01:01:59.357Z,99.99
2017-05-02T01:02:59.211Z,99.99
2017-05-02T01:03:59.192Z,99.99
2017-05-02T01:04:59.171Z,99.99
2017-05-02T01:05:59.208Z,99.99
2017-05-02T01:06:59.432Z,99.99
2017-05-02T01:07:59.410Z,99.99
2017-05-02T01:08:59.392Z,99.99
2017-05-02T01:09:59.372Z,99.99
2017-05-02T01:10:59.360Z,99.99
2017-05-02T01:11:59.336Z,99.99
2017-05-02T01:12:59.328Z,99.99
2017-05-02T01:13:59.294Z,99.99
2017-05-02T01:14:58.982Z,99.99
2017-05-02T01:15:59.262Z,99.99
2017-05-02T01:16:59.243Z,99.99
2017-05-02T01:17:59.213Z,99.99
2017-05-02T01:18:58.899Z,99.99
2017-05-02T01:19:59.183Z,99.99
2017-05-02T01:20:58.851Z,99.99
2017-05-02T01:21:59.164Z,99.99
2017-05-02T01:22:59.139Z,99.99
2017-05-02T01:23:59.104Z,99.99
2017-05-02T01:24:58.782Z,99.99
2017-05-02T01:25:58.762Z,99.99
2017-05-02T01:26:59.053Z,99.99
2017-05-02T01:27:59.029Z,99.99
2017-05-02T01:28:58.694Z,99.99
2017-05-02T01:29:59.004Z,99.99
2017-05-02T01:30:58.964Z,99.99
2017-05-02T01:31:58.943Z,99.99
2017-05-02T01:32:58.922Z,99.99
2017-05-02T01:33:58.601Z,99.99
2017-05-02T01:34:58.893Z,99.99
2017-05-02T01:35:58.872Z,99.99
2017-05-02T01:36:58.852Z,99.99
2017-05-02T01:37:58.531Z,99.99
2017-05-02T01:38:58.504Z,99.99
2017-05-02T01:39:58.800Z,99.99
2017-05-02T01:40:58.466Z,99.99
2017-05-02T01:41:58.441Z,99.99
2017-05-02T01:42:58.730Z,99.99
2017-05-02T01:43:58.710Z,99.99
2017-05-02T01:44:58.701Z,99.99
2017-05-02T01:45:58.372Z,99.99
2017-05-02T01:46:58.342Z,99.99
2017-05-02T01:47:58.650Z,99.99
2017-05-02T01:48:58.313Z,99.99
2017-05-02T01:49:58.291Z,99.99
2017-05-02T01:50:58.264Z,99.99
2017-05-02T01:51:58.565Z,99.99
2017-05-02T01:52:58.251Z,99.99
2017-05-02T01:53:58.528Z,99.99
2017-05-02T01:54:58.202Z,99.99
2017-05-02T01:55:58.481Z,99.99
2017-05-02T01:56:58.165Z,99.99
2017-05-02T01:57:58.149Z,99.99
2017-05-02T01:58:58.422Z,99.99
2017-05-02T01:59:58.407Z,99.99
2017-05-02T02:00:58.385Z,99.99
2017-05-02T02:01:58.056Z,99.99
2017-05-02T02:02:58.049Z,99.99
2017-05-02T02:03:58.312Z,99.99
2017-05-02T02:04:57.999Z,99.99
2017-05-02T02:05:58.282Z,99.99
2017-05-02T02:06:58.253Z,99.99
2017-05-02T02:07:58.251Z,99.99
2017-05-02T02:08:58.222Z,99.99
2017-05-02T02:09:58.203Z,99.99
2017-05-02T02:10:58.182Z,99.99
2017-05-02T02:11:57.946Z,99.99
2017-05-02T02:12:58.146Z,99.99
2017-05-02T02:13:58.131Z,99.99
2017-05-02T02:14:58.102Z,99.99
2017-05-02T02:15:58.094Z,99.99
2017-05-02T02:16:57.796Z,99.99
2017-05-02T02:17:58.043Z,99.99
2017-05-02T02:18:57.730Z,99.99
2017-05-02T02:19:58.011Z,99.99
2017-05-02T02:20:57.684Z,99.99
2017-05-02T02:21:57.971Z,99.99
2017-05-02T02:22:57.953Z,99.99
2017-05-02T02:23:57.942Z,99.99
2017-05-02T02:24:57.913Z,99.99
2017-05-02T02:25:57.902Z,99.99
2017-05-02T02:26:57.871Z,99.99
2017-05-02T02:27:57.870Z,99.99
2017-05-02T02:28:57.835Z,99.99
2017-05-02T02:29:57.823Z,99.99
2017-05-02T02:30:57.483Z,99.99
2017-05-02T02:31:57.767Z,99.99
2017-05-02T02:32:57.759Z,99.99
2017-05-02T02:33:57.735Z,99.99
2017-05-02T02:34:57.723Z,99.99
2017-05-02T02:35:57.694Z,99.99
2017-05-02T02:36:57.369Z,99.99
2017-05-02T02:37:57.663Z,99.99
2017-05-02T02:38:57.633Z,99.99
2017-05-02T02:39:57.313Z,99.99
2017-05-02T02:40:57.298Z,99.99
2017-05-02T02:41:57.284Z,99.99
2017-05-02T02:42:57.258Z,99.99
2017-05-02T02:43:57.545Z,99.99
2017-05-02T02:44:57.224Z,99.99
2017-05-02T02:45:57.200Z,99.99
2017-05-02T02:46:57.485Z,99.99
2017-05-02T02:47:57.465Z,99.99
2017-05-02T02:48:57.442Z,99.99
2017-05-02T02:49:57.423Z,99.99
2017-05-02T02:50:57.404Z,99.99
2017-05-02T02:51:57.385Z,99.99
2017-05-02T02:52:57.381Z,99.99
2017-05-02T02:53:57.344Z,99.99
2017-05-02T02:54:57.342Z,99.99
2017-05-02T02:55:57.313Z,99.99
2017-05-02T02:56:57.282Z,99.99
2017-05-02T02:57:57.272Z,99.99
2017-05-02T02:58:57.252Z,99.99
2017-05-02T02:59:57.223Z,99.99
2017-05-02T03:00:57.204Z,99.99
2017-05-02T03:01:57.189Z,99.99
2017-05-02T03:02:56.862Z,99.99
2017-05-02T03:03:57.152Z,99.99
2017-05-02T03:04:57.134Z,99.99
2017-05-02T03:05:57.123Z,99.99
2017-05-02T03:06:57.092Z,99.99
2017-05-02T03:07:57.081Z,99.99
2017-05-02T03:08:57.049Z,99.99
2017-05-02T03:09:57.023Z,99.99
2017-05-02T03:10:57.013Z,99.99
2017-05-02T03:11:56.684Z,99.99
2017-05-02T03:12:56.667Z,99.99
2017-05-02T03:13:56.954Z,99.99
2017-05-02T03:14:56.925Z,99.99
2017-05-02T03:15:56.603Z,99.99
2017-05-02T03:16:56.584Z,99.99
2017-05-02T03:17:56.872Z,99.99
2017-05-02T03:18:56.543Z,99.99
2017-05-02T03:19:56.529Z,99.99
2017-05-02T03:20:56.510Z,99.99
2017-05-02T03:21:56.793Z,99.99
2017-05-02T03:22:56.773Z,99.99
2017-05-02T03:23:56.763Z,99.99
2017-05-02T03:24:56.432Z,99.99
2017-05-02T03:25:56.713Z,99.99
2017-05-02T03:26:56.694Z,99.99
2017-05-02T03:27:56.678Z,99.99
2017-05-02T03:28:56.652Z,99.99
2017-05-02T03:29:56.643Z,99.99
2017-05-02T03:30:56.614Z,99.99
2017-05-02T03:31:56.607Z,99.99
2017-05-02T03:32:56.575Z,99.99
2017-05-02T03:33:56.556Z,99.99
2017-05-02T03:34:56.544Z,99.99
2017-05-02T03:35:56.513Z,99.99
2017-05-02T03:36:56.193Z,99.99
2017-05-02T03:37:56.495Z,99.99
2017-05-02T03:38:56.163Z,99.99
2017-05-02T03:39:56.145Z,99.99
2017-05-02T03:40:56.423Z,99.99
2017-05-02T03:41:56.114Z,99.99
2017-05-02T03:42:56.386Z,99.99
2017-05-02T03:43:56.374Z,99.99
2017-05-02T03:44:56.344Z,99.99
2017-05-02T03:45:56.323Z,99.99
2017-05-02T03:46:56.298Z,99.99
2017-05-02T03:47:56.286Z,99.99
2017-05-02T03:48:55.973Z,99.99
2017-05-02T03:49:55.942Z,99.99
2017-05-02T03:50:56.222Z,99.99
2017-05-02T03:51:56.203Z,99.99
2017-05-02T03:52:55.891Z,99.99
2017-05-02T03:53:56.184Z,99.99
2017-05-02T03:54:56.144Z,99.99
2017-05-02T03:55:56.132Z,99.99
2017-05-02T03:56:56.105Z,99.99
2017-05-02T03:57:55.774Z,99.99
2017-05-02T03:58:55.752Z,99.99
2017-05-02T03:59:56.050Z,99.99
2017-05-02T04:00:56.033Z,99.99
2017-05-02T04:01:55.695Z,99.99
2017-05-02T04:02:55.994Z,99.99
2017-05-02T04:03:55.962Z,99.99
2017-05-02T04:04:55.944Z,99.99
2017-05-02T04:05:55.925Z,99.99
2017-05-02T04:06:55.912Z,99.99
2017-05-02T04:07:55.593Z,99.99
2017-05-02T04:08:55.870Z,99.99
2017-05-02T04:09:55.554Z,99.99
2017-05-02T04:10:55.823Z,99.99
2017-05-02T04:11:55.804Z,99.99
2017-05-02T04:12:55.483Z,99.99
2017-05-02T04:13:55.785Z,99.99
2017-05-02T04:14:55.749Z,99.99
2017-05-02T04:15:55.764Z,99.99
2017-05-02T04:16:55.704Z,99.99
2017-05-02T04:17:55.698Z,99.99
2017-05-02T04:18:55.366Z,99.99
2017-05-02T04:19:55.653Z,99.99
2017-05-02T04:20:55.629Z,99.99
2017-05-02T04:21:55.613Z,99.99
2017-05-02T04:22:55.593Z,99.99
2017-05-02T04:23:55.274Z,99.99
2017-05-02T04:24:55.553Z,99.99
2017-05-02T04:25:55.223Z,99.99
2017-05-02T04:26:55.514Z,99.99
2017-05-02T04:27:55.527Z,99.99
2017-05-02T04:28:55.174Z,99.99
2017-05-02T04:29:55.152Z,99.99
2017-05-02T04:30:55.442Z,99.99
2017-05-02T04:31:55.413Z,99.99
2017-05-02T04:32:55.396Z,99.99
2017-05-02T04:33:55.375Z,99.99
2017-05-02T04:34:55.358Z,99.99
2017-05-02T04:35:55.342Z,99.99
2017-05-02T04:36:55.326Z,99.99
2017-05-02T04:37:54.990Z,99.99
2017-05-02T04:38:55.275Z,99.99
2017-05-02T04:39:55.254Z,99.99
2017-05-02T04:40:55.236Z,99.99
2017-05-02T04:41:55.218Z,99.99
2017-05-02T04:42:54.894Z,99.99
2017-05-02T04:43:54.869Z,99.99
2017-05-02T04:44:54.853Z,99.99
2017-05-02T04:45:55.130Z,99.99
2017-05-02T04:46:55.125Z,99.99
2017-05-02T04:47:54.795Z,99.99
2017-05-02T04:48:55.081Z,99.99
2017-05-02T04:49:54.745Z,99.99
2017-05-02T04:50:55.034Z,99.99
2017-05-02T04:51:55.009Z,99.99
2017-05-02T04:52:54.997Z,99.99
2017-05-02T04:53:54.975Z,99.99
2017-05-02T04:54:54.955Z,99.99
2017-05-02T04:55:54.933Z,99.99
2017-05-02T04:56:54.964Z,99.99
2017-05-02T04:57:54.894Z,99.99
2017-05-02T04:58:54.575Z,99.99
2017-05-02T04:59:54.854Z,99.99
2017-05-02T05:00:54.841Z,99.99
2017-05-02T05:01:54.510Z,99.99
2017-05-02T05:02:54.503Z,99.99
2017-05-02T05:03:54.785Z,99.99
2017-05-02T05:04:54.773Z,99.99
2017-05-02T05:05:54.432Z,99.99
2017-05-02T05:06:54.422Z,99.99
2017-05-02T05:07:54.703Z,99.99
2017-05-02T05:08:54.373Z,99.99
2017-05-02T05:09:54.670Z,99.99
2017-05-02T05:10:54.653Z,99.99
2017-05-02T05:11:54.652Z,99.99
2017-05-02T05:12:54.666Z,99.99
2017-05-02T05:13:54.293Z,99.99
2017-05-02T05:14:54.594Z,99.99
2017-05-02T05:15:54.552Z,99.99
2017-05-02T05:16:54.522Z,99.99
2017-05-02T05:17:54.532Z,99.99
2017-05-02T05:18:54.533Z,99.99
2017-05-02T05:19:54.475Z,99.99
2017-05-02T05:20:54.473Z,99.99
2017-05-02T05:21:54.424Z,99.99
2017-05-02T05:22:54.409Z,99.99
2017-05-02T05:23:54.381Z,99.99
2017-05-02T05:24:54.365Z,99.99
2017-05-02T05:25:54.342Z,99.99
2017-05-02T05:26:54.024Z,99.99
2017-05-02T05:27:54.302Z,99.99
2017-05-02T05:28:54.285Z,99.99
2017-05-02T05:29:53.963Z,99.99
2017-05-02T05:30:54.245Z,99.99
2017-05-02T05:31:54.231Z,99.99
2017-05-02T05:32:54.215Z,99.99
2017-05-02T05:33:54.200Z,99.99
2017-05-02T05:34:54.181Z,99.99
2017-05-02T05:35:53.844Z,99.99
2017-05-02T05:36:54.123Z,99.99
2017-05-02T05:37:53.804Z,99.99
2017-05-02T05:38:54.092Z,99.99
2017-05-02T05:39:54.075Z,99.99
2017-05-02T05:40:54.060Z,99.99
2017-05-02T05:41:54.075Z,99.99
2017-05-02T05:42:53.710Z,99.99
2017-05-02T05:43:54.021Z,99.99
2017-05-02T05:44:53.973Z,99.99
2017-05-02T05:45:53.641Z,99.99
2017-05-02T05:46:53.942Z,99.99
2017-05-02T05:47:53.924Z,99.99
2017-05-02T05:48:53.894Z,99.99
2017-05-02T05:49:53.872Z,99.99
2017-05-02T05:50:53.862Z,99.99
2017-05-02T05:51:53.534Z,99.99
2017-05-02T05:52:53.830Z,99.99
2017-05-02T05:53:53.803Z,99.99
2017-05-02T05:54:53.471Z,99.99
2017-05-02T05:55:53.814Z,99.99
2017-05-02T05:56:53.742Z,99.99
2017-05-02T05:57:53.412Z,99.99
2017-05-02T05:58:53.391Z,99.99
2017-05-02T05:59:53.726Z,99.99
2017-05-02T06:00:53.664Z,99.99
2017-05-02T06:01:53.329Z,99.99
2017-05-02T06:02:53.616Z,99.99
2017-05-02T06:03:53.602Z,99.99
2017-05-02T06:04:53.580Z,99.99
2017-05-02T06:05:53.565Z,99.99
2017-05-02T06:06:53.235Z,99.99
2017-05-02T06:07:53.525Z,99.99
2017-05-02T06:08:53.512Z,99.99
2017-05-02T06:09:53.181Z,99.99
2017-05-02T06:10:53.461Z,99.99
2017-05-02T06:11:53.513Z,99.99
2017-05-02T06:12:53.432Z,99.99
2017-05-02T06:13:53.494Z,99.99
2017-05-02T06:14:53.389Z,99.99
2017-05-02T06:15:53.374Z,99.99
2017-05-02T06:16:53.352Z,99.99
2017-05-02T06:17:53.325Z,99.99
2017-05-02T06:18:53.009Z,99.99
2017-05-02T06:19:52.986Z,99.99
2017-05-02T06:20:52.970Z,99.99
2017-05-02T06:21:53.287Z,99.99
2017-05-02T06:22:52.926Z,99.99
2017-05-02T06:23:53.221Z,99.99
2017-05-02T06:24:53.211Z,99.99
2017-05-02T06:25:53.172Z,99.99
2017-05-02T06:26:53.152Z,99.99
2017-05-02T06:27:53.143Z,99.99
2017-05-02T06:28:53.112Z,99.99
2017-05-02T06:29:53.094Z,99.99
2017-05-02T06:30:53.076Z,99.99
2017-05-02T06:31:53.068Z,99.99
2017-05-02T06:32:53.033Z,99.99
2017-05-02T06:33:53.028Z,99.99
2017-05-02T06:34:52.994Z,99.99
2017-05-02T06:35:52.979Z,99.99
2017-05-02T06:36:52.967Z,99.99
2017-05-02T06:37:52.946Z,99.99
2017-05-02T06:38:52.614Z,99.99
2017-05-02T06:39:52.905Z,99.99
2017-05-02T06:40:52.887Z,99.99
2017-05-02T06:41:52.874Z,99.99
2017-05-02T06:42:52.843Z,99.99
2017-05-02T06:43:52.515Z,99.99
2017-05-02T06:44:52.805Z,99.99
2017-05-02T06:45:52.782Z,99.99
2017-05-02T06:46:52.774Z,99.99
2017-05-02T06:47:52.754Z,99.99
2017-05-02T06:48:52.422Z,99.99
2017-05-02T06:49:52.704Z,99.99
2017-05-02T06:50:52.685Z,99.99
2017-05-02T06:51:52.663Z,99.99
2017-05-02T06:52:52.338Z,99.99
2017-05-02T06:53:52.626Z,99.99
2017-05-02T06:54:52.302Z,99.99
2017-05-02T06:55:52.593Z,99.99
2017-05-02T06:56:52.571Z,99.99
2017-05-02T06:57:52.552Z,99.99
2017-05-02T06:58:52.537Z,99.99
2017-05-02T06:59:52.512Z,99.99
2017-05-02T07:00:52.493Z,99.99
2017-05-02T07:01:52.476Z,99.99
2017-05-02T07:02:52.463Z,99.99
2017-05-02T07:03:52.434Z,99.99
2017-05-02T07:04:52.111Z,99.99
2017-05-02T07:05:52.392Z,99.99
2017-05-02T07:06:52.064Z,99.99
2017-05-02T07:07:52.063Z,99.99
2017-05-02T07:08:52.020Z,99.99
2017-05-02T07:09:52.313Z,99.99
2017-05-02T07:10:51.983Z,99.99
2017-05-02T07:11:51.978Z,99.99
2017-05-02T07:12:51.950Z,99.99
2017-05-02T07:13:52.242Z,99.99
2017-05-02T07:14:51.919Z,99.99
2017-05-02T07:15:52.264Z,99.99
2017-05-02T07:16:52.172Z,99.99
2017-05-02T07:17:52.163Z,99.99
2017-05-02T07:18:52.142Z,99.99
2017-05-02T07:19:52.132Z,99.99
2017-05-02T07:20:52.093Z,99.99
2017-05-02T07:21:52.084Z,99.99
2017-05-02T07:22:51.761Z,99.99
2017-05-02T07:23:51.743Z,99.99
2017-05-02T07:24:52.026Z,99.99
2017-05-02T07:25:52.090Z,99.99
2017-05-02T07:26:51.992Z,99.99
2017-05-02T07:27:52.033Z,99.99
2017-05-02T07:28:51.955Z,99.99
2017-05-02T07:29:51.941Z,99.99
2017-05-02T07:30:51.604Z,99.99
2017-05-02T07:31:51.894Z,99.99
2017-05-02T07:32:51.871Z,99.99
2017-05-02T07:33:51.961Z,99.99
2017-05-02T07:34:51.531Z,99.99
2017-05-02T07:35:51.881Z,99.99
2017-05-02T07:36:51.793Z,99.99
2017-05-02T07:37:51.476Z,99.99
2017-05-02T07:38:51.782Z,99.99
2017-05-02T07:39:51.785Z,99.99
2017-05-02T07:40:51.723Z,99.99
2017-05-02T07:41:51.398Z,99.99
2017-05-02T07:42:51.689Z,99.99
2017-05-02T07:43:51.691Z,99.99
2017-05-02T07:44:51.344Z,99.99
2017-05-02T07:45:51.322Z,99.99
2017-05-02T07:46:51.612Z,99.99
2017-05-02T07:47:51.594Z,99.99
2017-05-02T07:48:51.582Z,99.99
2017-05-02T07:49:51.561Z,99.99
2017-05-02T07:50:51.529Z,99.99
2017-05-02T07:51:51.233Z,99.99
2017-05-02T07:52:51.493Z,99.99
2017-05-02T07:53:51.184Z,99.99
2017-05-02T07:54:51.481Z,99.99
2017-05-02T07:55:51.136Z,99.99
2017-05-02T07:56:51.111Z,99.99
2017-05-02T07:57:51.419Z,99.99
2017-05-02T07:58:51.392Z,99.99
2017-05-02T07:59:51.074Z,99.99
2017-05-02T08:00:51.051Z,99.99
2017-05-02T08:01:51.022Z,99.99
2017-05-02T08:02:51.314Z,99.99
2017-05-02T08:03:51.296Z,99.99
2017-05-02T08:04:50.974Z,99.99
2017-05-02T08:05:51.253Z,99.99
2017-05-02T08:06:51.242Z,99.99
2017-05-02T08:07:51.224Z,99.99
2017-05-02T08:08:50.902Z,99.99
2017-05-02T08:09:50.872Z,99.99
2017-05-02T08:10:51.176Z,99.99
2017-05-02T08:11:51.157Z,99.99
2017-05-02T08:12:50.825Z,99.99
2017-05-02T08:13:50.811Z,99.99
2017-05-02T08:14:51.102Z,99.99
2017-05-02T08:15:50.771Z,99.99
2017-05-02T08:16:51.056Z,99.99
2017-05-02T08:17:50.740Z,99.99
2017-05-02T08:18:51.023Z,99.99
2017-05-02T08:19:51.012Z,99.99
2017-05-02T08:20:50.990Z,99.99
2017-05-02T08:21:50.653Z,99.99
2017-05-02T08:22:50.962Z,99.99
2017-05-02T08:23:50.922Z,99.99
2017-05-02T08:24:50.913Z,99.99
2017-05-02T08:25:50.598Z,99.99
2017-05-02T08:26:50.871Z,99.99
2017-05-02T08:27:50.861Z,99.99
2017-05-02T08:28:50.547Z,99.99
2017-05-02T08:29:50.824Z,99.99
2017-05-02T08:30:50.809Z,99.99
2017-05-02T08:31:50.501Z,99.99
2017-05-02T08:32:50.782Z,99.99
2017-05-02T08:33:50.788Z,99.99
2017-05-02T08:34:50.742Z,99.99
2017-05-02T08:35:50.715Z,99.99
2017-05-02T08:36:50.699Z,99.99
2017-05-02T08:37:50.372Z,99.99
2017-05-02T08:38:50.662Z,99.99
2017-05-02T08:39:50.653Z,99.99
2017-05-02T08:40:50.620Z,99.99
2017-05-02T08:41:50.608Z,99.99
2017-05-02T08:42:50.606Z,99.99
2017-05-02T08:43:50.567Z,99.99
2017-05-02T08:44:50.560Z,99.99
2017-05-02T08:45:50.533Z,99.99
2017-05-02T08:46:50.517Z,99.99
2017-05-02T08:47:50.499Z,99.99
2017-05-02T08:48:50.496Z,99.99
2017-05-02T08:49:50.458Z,99.99
2017-05-02T08:50:50.449Z,99.99
2017-05-02T08:51:50.426Z,99.99
2017-05-02T08:52:50.105Z,99.99
2017-05-02T08:53:50.405Z,99.99
2017-05-02T08:54:50.372Z,99.99
2017-05-02T08:55:50.055Z,99.99
2017-05-02T08:56:50.326Z,99.99
2017-05-02T08:57:50.334Z,99.99
2017-05-02T08:58:50.303Z,99.99
2017-05-02T08:59:50.282Z,99.99
2017-05-02T09:00:50.263Z,99.99
2017-05-02T09:01:50.254Z,99.99
2017-05-02T09:02:50.227Z,99.99
2017-05-02T09:03:50.238Z,99.99
2017-05-02T09:04:49.894Z,99.99
2017-05-02T09:05:50.184Z,99.99
2017-05-02T09:06:50.153Z,99.99
2017-05-02T09:07:50.143Z,99.99
2017-05-02T09:08:50.120Z,99.99
2017-05-02T09:09:50.123Z,99.99
2017-05-02T09:10:50.082Z,99.99
2017-05-02T09:11:50.063Z,99.99
2017-05-02T09:12:50.054Z,99.99
2017-05-02T09:13:49.722Z,99.99
2017-05-02T09:14:50.006Z,99.99
2017-05-02T09:15:49.994Z,99.99
2017-05-02T09:16:49.670Z,99.99
2017-05-02T09:17:49.652Z,99.99
2017-05-02T09:18:49.932Z,99.99
2017-05-02T09:19:49.921Z,99.99
2017-05-02T09:20:49.912Z,99.99
2017-05-02T09:21:49.571Z,99.99
2017-05-02T09:22:49.872Z,99.99
2017-05-02T09:23:49.541Z,99.99
2017-05-02T09:24:49.841Z,99.99
2017-05-02T09:25:49.502Z,99.99
2017-05-02T09:26:49.499Z,99.99
2017-05-02T09:27:49.783Z,99.99
2017-05-02T09:28:49.751Z,99.99
2017-05-02T09:29:49.739Z,99.99
2017-05-02T09:30:49.721Z,99.99
2017-05-02T09:31:49.710Z,99.99
2017-05-02T09:32:49.381Z,99.99
2017-05-02T09:33:49.672Z,99.99
2017-05-02T09:34:49.651Z,99.99
2017-05-02T09:35:49.630Z,99.99
2017-05-02T09:36:49.614Z,99.99
2017-05-02T09:37:49.294Z,99.99
2017-05-02T09:38:49.274Z,99.99
2017-05-02T09:39:49.259Z,99.99
2017-05-02T09:40:49.543Z,99.99
2017-05-02T09:41:49.524Z,99.99
2017-05-02T09:42:49.502Z,99.99
2017-05-02T09:43:49.183Z,99.99
2017-05-02T09:44:49.162Z,99.99
2017-05-02T09:45:49.464Z,99.99
2017-05-02T09:46:49.122Z,99.99
2017-05-02T09:47:49.416Z,99.99
2017-05-02T09:48:49.104Z,99.99
2017-05-02T09:49:49.422Z,99.99
2017-05-02T09:50:49.368Z,99.99
2017-05-02T09:51:49.042Z,99.99
2017-05-02T09:52:49.323Z,99.99
2017-05-02T09:53:49.333Z,99.99
2017-05-02T09:54:49.299Z,99.99
2017-05-02T09:55:48.964Z,99.99
2017-05-02T09:56:48.941Z,99.99
2017-05-02T09:57:48.933Z,99.99
2017-05-02T09:58:49.223Z,99.99
2017-05-02T09:59:48.902Z,99.99
2017-05-02T10:00:49.233Z,99.99
2017-05-02T10:01:49.163Z,99.99
2017-05-02T10:02:49.153Z,99.99
2017-05-02T10:03:49.123Z,99.99
2017-05-02T10:04:48.810Z,99.99
2017-05-02T10:05:49.116Z,99.99
2017-05-02T10:06:49.084Z,99.99
2017-05-02T10:07:48.755Z,99.99
2017-05-02T10:08:49.052Z,99.99
2017-05-02T10:09:49.028Z,99.99
2017-05-02T10:10:49.003Z,99.99
2017-05-02T10:11:48.673Z,99.99
2017-05-02T10:12:48.967Z,99.99
2017-05-02T10:13:48.644Z,99.99
2017-05-02T10:14:48.928Z,99.99
2017-05-02T10:15:48.916Z,99.99
2017-05-02T10:16:48.893Z,99.99
2017-05-02T10:17:48.573Z,99.99
2017-05-02T10:18:48.864Z,99.99
2017-05-02T10:19:48.552Z,99.99
2017-05-02T10:20:48.823Z,99.99
2017-05-02T10:21:48.810Z,99.99
2017-05-02T10:22:48.480Z,99.99
2017-05-02T10:23:48.466Z,99.99
2017-05-02T10:24:48.752Z,99.99
2017-05-02T10:25:48.422Z,99.99
2017-05-02T10:26:48.712Z,99.99
2017-05-02T10:27:48.694Z,99.99
2017-05-02T10:28:48.683Z,99.99
2017-05-02T10:29:48.672Z,99.99
2017-05-02T10:30:48.340Z,99.99
2017-05-02T10:31:48.654Z,99.99
2017-05-02T10:32:48.632Z,99.99
2017-05-02T10:33:48.594Z,99.99
2017-05-02T10:34:48.581Z,99.99
2017-05-02T10:35:48.559Z,99.99
2017-05-02T10:36:48.543Z,99.99
2017-05-02T10:37:48.545Z,99.99
2017-05-02T10:38:48.208Z,99.99
2017-05-02T10:39:48.193Z,99.99
2017-05-02T10:40:48.509Z,99.72
2017-05-02T10:41:48.455Z,99.29
2017-05-02T10:42:48.442Z,98.62
2017-05-02T10:43:48.423Z,98.91
2017-05-02T10:44:48.432Z,99
2017-05-02T10:45:48.392Z,98.43
2017-05-02T10:46:48.377Z,98.24
2017-05-02T10:47:48.357Z,97.85
2017-05-02T10:48:48.378Z,98.05
2017-05-02T10:49:48.326Z,98.05
2017-05-02T10:50:48.304Z,98.91
2017-05-02T10:51:48.298Z,98.81
2017-05-02T10:52:48.274Z,98.43
2017-05-02T10:53:48.254Z,98.19
2017-05-02T10:54:48.251Z,97.61
2017-05-02T10:55:48.228Z,97.8
2017-05-02T10:56:47.895Z,97.71
2017-05-02T10:57:48.197Z,97.75
2017-05-02T10:58:48.186Z,98.62
2017-05-02T10:59:48.180Z,98.91
2017-05-02T11:00:48.148Z,99.62
2017-05-02T11:01:48.143Z,99.19
2017-05-02T11:02:48.109Z,99.29
2017-05-02T11:03:48.106Z,98.81
2017-05-02T11:04:48.098Z,97.85
2017-05-02T11:05:48.074Z,97.85
2017-05-02T11:06:48.055Z,97.75
2017-05-02T11:07:48.037Z,98.24
2017-05-02T11:08:48.026Z,98.28
2017-05-02T11:09:47.752Z,97.23
2017-05-02T11:10:47.976Z,97.61
2017-05-02T11:11:47.687Z,97.23
2017-05-02T11:12:47.974Z,96.84
2017-05-02T11:13:47.933Z,96.08
2017-05-02T11:14:47.609Z,97.04
2017-05-02T11:15:47.916Z,95.89
2017-05-02T11:16:47.890Z,96.27
2017-05-02T11:17:47.877Z,96.66
2017-05-02T11:18:47.845Z,97.47
2017-05-02T11:19:47.835Z,96.89
2017-05-02T11:20:47.834Z,96.94
2017-05-02T11:21:47.805Z,97.14
2017-05-02T11:22:47.792Z,96.84
2017-05-02T11:23:47.781Z,96.75
2017-05-02T11:24:47.748Z,97.42
2017-05-02T11:25:47.735Z,96.84
2017-05-02T11:26:47.796Z,97.23
2017-05-02T11:27:47.705Z,96.18
2017-05-02T11:28:47.686Z,96.18
2017-05-02T11:29:47.677Z,96.18
2017-05-02T11:30:47.653Z,96.37
2017-05-02T11:31:47.631Z,96.18
2017-05-02T11:32:47.695Z,96.47
2017-05-02T11:33:47.607Z,95.7
2017-05-02T11:34:47.590Z,95.6
2017-05-02T11:35:47.581Z,96.47
2017-05-02T11:36:47.550Z,95.7
2017-05-02T11:37:47.543Z,96.18
2017-05-02T11:38:47.520Z,96.32
2017-05-02T11:39:47.504Z,96.32
2017-05-02T11:40:47.494Z,95.75
2017-05-02T11:41:47.480Z,95.36
2017-05-02T11:42:47.454Z,94.79
2017-05-02T11:43:47.434Z,94.21
2017-05-02T11:44:47.435Z,92.68
2017-05-02T11:45:47.416Z,92.58
2017-05-02T11:46:47.404Z,92.82
2017-05-02T11:47:47.077Z,92.63
2017-05-02T11:48:47.374Z,93.11
2017-05-02T11:49:47.333Z,92.92
2017-05-02T11:50:47.325Z,93.06
2017-05-02T11:51:47.315Z,92.97
2017-05-02T11:52:47.296Z,92.2
2017-05-02T11:53:47.284Z,92.92
2017-05-02T11:54:47.264Z,92.2
2017-05-02T11:55:47.244Z,91.05
2017-05-02T11:56:47.244Z,91.43
2017-05-02T11:57:47.215Z,91.48
2017-05-02T11:58:47.204Z,91.38
2017-05-02T11:59:47.190Z,91.38
2017-05-02T12:00:46.856Z,90.52
2017-05-02T12:01:47.166Z,89.85
2017-05-02T12:02:47.134Z,88.98
2017-05-02T12:03:47.126Z,89.12
2017-05-02T12:04:47.106Z,88.17
2017-05-02T12:05:47.087Z,88.35
2017-05-02T12:06:47.084Z,88.31
2017-05-02T12:07:47.079Z,87.35
2017-05-02T12:08:47.055Z,87.35
2017-05-02T12:09:47.035Z,87.05
2017-05-02T12:10:46.714Z,84.85
2017-05-02T12:11:46.705Z,85.52
2017-05-02T12:12:46.997Z,86.63
2017-05-02T12:13:46.975Z,87.01
2017-05-02T12:14:46.949Z,88.41
2017-05-02T12:15:46.946Z,88.22
2017-05-02T12:16:46.931Z,89.42
2017-05-02T12:17:46.914Z,89.71
2017-05-02T12:18:46.932Z,89.13
2017-05-02T12:19:46.564Z,89.76
2017-05-02T12:20:46.864Z,88.99
2017-05-02T12:21:46.864Z,89.09
2017-05-02T12:22:46.824Z,89.57
2017-05-02T12:23:46.513Z,90.05
2017-05-02T12:24:46.797Z,90.05
2017-05-02T12:25:46.463Z,90.81
2017-05-02T12:26:46.756Z,90.53
2017-05-02T12:27:46.434Z,90.62
2017-05-02T12:28:46.726Z,90.72
2017-05-02T12:29:46.715Z,90.91
2017-05-02T12:30:46.386Z,91.49
2017-05-02T12:31:46.676Z,90.91
2017-05-02T12:32:46.374Z,90.91
2017-05-02T12:33:46.340Z,90.91
2017-05-02T12:34:46.631Z,90.91
2017-05-02T12:35:46.312Z,90.86
2017-05-02T12:36:46.598Z,91.34
2017-05-02T12:37:46.576Z,90.86
2017-05-02T12:38:46.562Z,91.34
2017-05-02T12:39:46.552Z,91.53
2017-05-02T12:40:46.543Z,92.49
2017-05-02T12:41:46.505Z,92.92
2017-05-02T12:42:46.505Z,92.68
2017-05-02T12:43:46.174Z,92.68
2017-05-02T12:44:46.462Z,92.68
2017-05-02T12:45:46.440Z,92.58
2017-05-02T12:46:46.423Z,93.5
2017-05-02T12:47:46.424Z,94.36
2017-05-02T12:48:46.090Z,94.36
2017-05-02T12:49:46.368Z,95.03
2017-05-02T12:50:46.376Z,95.22
2017-05-02T12:51:46.333Z,95.7
2017-05-02T12:52:46.012Z,95.79